sensor_id;sensor_type;location;lat;lon;timestamp;temperature;humidity
16966;DHT22;8599;47.852;12.070;2023-05-15T00:01:54;11.50;99.90
16966;DHT22;8599;47.852;12.070;2023-05-15T00:04:21;11.50;99.90
16966;DHT22;8599;47.852;12.070;2023-05-15T00:06:48;11.50;99.90
16966;DHT22;8599;47.852;12.070;2023-05-15T00:09:14;11.40;99.90
16966;DHT22;8599;47.852;12.070;2023-05-15T00:11:41;11.40;99.90
16966;DHT22;8599;47.852;12.070;2023-05-15T00:14:08;11.30;99.90
16966;DHT22;8599;47.852;12.070;2023-05-15T00:16:36;11.30;99.90
16966;DHT22;8599;47.852;12.070;2023-05-15T00:19:03;11.30;99.90
16966;DHT22;8599;47.852;12.070;2023-05-15T00:21:30;11.40;99.90
16966;DHT22;8599;47.852;12.070;2023-05-15T00:23:56;11.40;99.90
16966;DHT22;8599;47.852;12.070;2023-05-15T00:26:23;11.40;99.90
16966;DHT22;8599;47.852;12.070;2023-05-15T00:28:50;11.40;99.90
16966;DHT22;8599;47.852;12.070;2023-05-15T00:31:17;11.40;99.90
16966;DHT22;8599;47.852;12.070;2023-05-15T00:33:45;11.40;99.90
16966;DHT22;8599;47.852;12.070;2023-05-15T00:36:12;11.40;99.90
16966;DHT22;8599;47.852;12.070;2023-05-15T00:38:39;11.40;99.90
16966;DHT22;8599;47.852;12.070;2023-05-15T00:41:06;11.40;99.90
16966;DHT22;8599;47.852;12.070;2023-05-15T00:43:34;11.50;99.90
16966;DHT22;8599;47.852;12.070;2023-05-15T00:46:02;11.50;99.90
16966;DHT22;8599;47.852;12.070;2023-05-15T00:48:30;11.40;99.90
16966;DHT22;8599;47.852;12.070;2023-05-15T00:50:59;11.40;99.90
16966;DHT22;8599;47.852;12.070;2023-05-15T00:53:27;11.40;99.90
16966;DHT22;8599;47.852;12.070;2023-05-15T00:55:56;11.50;99.90
16966;DHT22;8599;47.852;12.070;2023-05-15T00:58:23;11.40;99.90
16966;DHT22;8599;47.852;12.070;2023-05-15T01:00:52;11.40;99.90
16966;DHT22;8599;47.852;12.070;2023-05-15T01:03:19;11.40;99.90
16966;DHT22;8599;47.852;12.070;2023-05-15T01:05:46;11.50;99.90
16966;DHT22;8599;47.852;12.070;2023-05-15T01:08:19;11.50;99.90
16966;DHT22;8599;47.852;12.070;2023-05-15T01:10:47;11.50;99.90
16966;DHT22;8599;47.852;12.070;2023-05-15T01:13:15;11.60;99.90
16966;DHT22;8599;47.852;12.070;2023-05-15T01:15:45;11.60;99.90
16966;DHT22;8599;47.852;12.070;2023-05-15T01:18:12;11.50;99.90
16966;DHT22;8599;47.852;12.070;2023-05-15T01:20:49;11.50;99.90
16966;DHT22;8599;47.852;12.070;2023-05-15T01:23:32;11.50;99.90
16966;DHT22;8599;47.852;12.070;2023-05-15T01:29:03;11.50;99.90
16966;DHT22;8599;47.852;12.070;2023-05-15T01:31:34;11.50;99.90
16966;DHT22;8599;47.852;12.070;2023-05-15T01:34:07;11.50;99.90
16966;DHT22;8599;47.852;12.070;2023-05-15T01:36:37;11.50;99.90
16966;DHT22;8599;47.852;12.070;2023-05-15T01:39:04;11.50;99.90
16966;DHT22;8599;47.852;12.070;2023-05-15T01:41:39;11.50;99.90
16966;DHT22;8599;47.852;12.070;2023-05-15T01:44:13;11.50;99.90
16966;DHT22;8599;47.852;12.070;2023-05-15T01:46:44;11.50;99.90
16966;DHT22;8599;47.852;12.070;2023-05-15T01:49:12;11.50;99.90
16966;DHT22;8599;47.852;12.070;2023-05-15T01:51:41;11.60;99.90
16966;DHT22;8599;47.852;12.070;2023-05-15T01:54:10;11.50;99.90
16966;DHT22;8599;47.852;12.070;2023-05-15T01:56:38;11.50;99.90
16966;DHT22;8599;47.852;12.070;2023-05-15T01:59:07;11.50;99.90
16966;DHT22;8599;47.852;12.070;2023-05-15T02:01:35;11.40;99.90
16966;DHT22;8599;47.852;12.070;2023-05-15T02:04:03;11.50;99.90
16966;DHT22;8599;47.852;12.070;2023-05-15T02:06:30;11.50;99.90
16966;DHT22;8599;47.852;12.070;2023-05-15T02:09:00;11.40;99.90
16966;DHT22;8599;47.852;12.070;2023-05-15T02:11:27;11.50;99.90
16966;DHT22;8599;47.852;12.070;2023-05-15T02:13:56;11.50;99.90
16966;DHT22;8599;47.852;12.070;2023-05-15T02:16:24;11.50;99.90
16966;DHT22;8599;47.852;12.070;2023-05-15T02:18:51;11.40;99.90
16966;DHT22;8599;47.852;12.070;2023-05-15T02:21:18;11.40;99.90
16966;DHT22;8599;47.852;12.070;2023-05-15T02:23:44;11.40;99.90
16966;DHT22;8599;47.852;12.070;2023-05-15T02:26:21;11.40;99.90
16966;DHT22;8599;47.852;12.070;2023-05-15T02:28:56;11.40;99.90
16966;DHT22;8599;47.852;12.070;2023-05-15T02:31:30;11.50;99.90
16966;DHT22;8599;47.852;12.070;2023-05-15T02:34:07;11.50;99.90
16966;DHT22;8599;47.852;12.070;2023-05-15T02:36:39;11.50;99.90
16966;DHT22;8599;47.852;12.070;2023-05-15T02:39:10;11.50;99.90
16966;DHT22;8599;47.852;12.070;2023-05-15T02:41:37;11.60;99.90
16966;DHT22;8599;47.852;12.070;2023-05-15T02:44:06;11.50;99.90
16966;DHT22;8599;47.852;12.070;2023-05-15T02:46:36;11.50;99.90
16966;DHT22;8599;47.852;12.070;2023-05-15T02:49:03;11.50;99.90
16966;DHT22;8599;47.852;12.070;2023-05-15T02:51:31;11.60;99.90
16966;DHT22;8599;47.852;12.070;2023-05-15T02:53:59;11.50;99.90
16966;DHT22;8599;47.852;12.070;2023-05-15T02:56:26;11.50;99.90
16966;DHT22;8599;47.852;12.070;2023-05-15T02:58:53;11.50;99.90
16966;DHT22;8599;47.852;12.070;2023-05-15T03:01:20;11.50;99.90
16966;DHT22;8599;47.852;12.070;2023-05-15T03:03:48;11.50;99.90
16966;DHT22;8599;47.852;12.070;2023-05-15T03:06:15;11.50;99.90
16966;DHT22;8599;47.852;12.070;2023-05-15T03:08:43;11.50;99.90
16966;DHT22;8599;47.852;12.070;2023-05-15T03:11:09;11.50;99.90
16966;DHT22;8599;47.852;12.070;2023-05-15T03:13:36;11.50;99.90
16966;DHT22;8599;47.852;12.070;2023-05-15T03:16:03;11.50;99.90
16966;DHT22;8599;47.852;12.070;2023-05-15T03:18:30;11.40;99.90
16966;DHT22;8599;47.852;12.070;2023-05-15T03:20:58;11.50;99.90
16966;DHT22;8599;47.852;12.070;2023-05-15T03:23:25;11.50;99.90
16966;DHT22;8599;47.852;12.070;2023-05-15T03:25:52;11.40;99.90
16966;DHT22;8599;47.852;12.070;2023-05-15T03:28:19;11.40;99.90
16966;DHT22;8599;47.852;12.070;2023-05-15T03:30:45;11.40;99.90
16966;DHT22;8599;47.852;12.070;2023-05-15T03:33:12;11.40;99.90
16966;DHT22;8599;47.852;12.070;2023-05-15T03:35:39;11.30;99.90
16966;DHT22;8599;47.852;12.070;2023-05-15T03:38:07;11.30;99.90
16966;DHT22;8599;47.852;12.070;2023-05-15T03:40:34;11.20;99.90
16966;DHT22;8599;47.852;12.070;2023-05-15T03:43:03;11.10;99.90
16966;DHT22;8599;47.852;12.070;2023-05-15T03:45:31;11.10;99.90
16966;DHT22;8599;47.852;12.070;2023-05-15T03:47:58;11.00;99.90
16966;DHT22;8599;47.852;12.070;2023-05-15T03:50:25;11.10;99.90
16966;DHT22;8599;47.852;12.070;2023-05-15T03:52:52;11.00;99.90
16966;DHT22;8599;47.852;12.070;2023-05-15T03:55:20;11.00;99.90
16966;DHT22;8599;47.852;12.070;2023-05-15T03:57:47;11.10;99.90
16966;DHT22;8599;47.852;12.070;2023-05-15T04:00:14;11.10;99.90
16966;DHT22;8599;47.852;12.070;2023-05-15T04:02:41;11.10;99.90
16966;DHT22;8599;47.852;12.070;2023-05-15T04:05:08;11.20;99.90
16966;DHT22;8599;47.852;12.070;2023-05-15T04:07:36;11.20;99.90
16966;DHT22;8599;47.852;12.070;2023-05-15T04:10:04;11.10;99.90
16966;DHT22;8599;47.852;12.070;2023-05-15T04:12:33;11.10;99.90
16966;DHT22;8599;47.852;12.070;2023-05-15T04:15:13;11.10;99.90
16966;DHT22;8599;47.852;12.070;2023-05-15T04:17:40;11.10;99.90
16966;DHT22;8599;47.852;12.070;2023-05-15T04:20:08;11.10;99.90
16966;DHT22;8599;47.852;12.070;2023-05-15T04:22:35;11.10;99.90
16966;DHT22;8599;47.852;12.070;2023-05-15T04:25:02;11.10;99.90
16966;DHT22;8599;47.852;12.070;2023-05-15T04:27:31;11.10;99.90
16966;DHT22;8599;47.852;12.070;2023-05-15T04:29:58;11.10;99.90
16966;DHT22;8599;47.852;12.070;2023-05-15T04:32:25;11.10;99.90
16966;DHT22;8599;47.852;12.070;2023-05-15T04:34:52;11.20;99.90
16966;DHT22;8599;47.852;12.070;2023-05-15T04:37:19;11.20;99.90
16966;DHT22;8599;47.852;12.070;2023-05-15T04:39:45;11.20;99.90
16966;DHT22;8599;47.852;12.070;2023-05-15T04:42:12;11.10;99.90
16966;DHT22;8599;47.852;12.070;2023-05-15T04:44:40;11.10;99.90
16966;DHT22;8599;47.852;12.070;2023-05-15T04:47:07;11.10;99.90
16966;DHT22;8599;47.852;12.070;2023-05-15T04:49:34;11.10;99.90
16966;DHT22;8599;47.852;12.070;2023-05-15T04:52:01;11.10;99.90
16966;DHT22;8599;47.852;12.070;2023-05-15T04:54:29;11.10;99.90
16966;DHT22;8599;47.852;12.070;2023-05-15T04:56:56;11.20;99.90
16966;DHT22;8599;47.852;12.070;2023-05-15T04:59:23;11.20;99.90
16966;DHT22;8599;47.852;12.070;2023-05-15T05:01:51;11.20;99.90
16966;DHT22;8599;47.852;12.070;2023-05-15T05:04:18;11.20;99.90
16966;DHT22;8599;47.852;12.070;2023-05-15T05:06:45;11.30;99.90
16966;DHT22;8599;47.852;12.070;2023-05-15T05:09:12;11.30;99.90
16966;DHT22;8599;47.852;12.070;2023-05-15T05:11:39;11.30;99.90
16966;DHT22;8599;47.852;12.070;2023-05-15T05:14:08;11.20;99.90
16966;DHT22;8599;47.852;12.070;2023-05-15T05:16:35;11.20;99.90
16966;DHT22;8599;47.852;12.070;2023-05-15T05:19:03;11.10;99.90
16966;DHT22;8599;47.852;12.070;2023-05-15T05:21:30;11.10;99.90
16966;DHT22;8599;47.852;12.070;2023-05-15T05:23:57;11.00;99.90
16966;DHT22;8599;47.852;12.070;2023-05-15T05:26:24;11.00;99.90
16966;DHT22;8599;47.852;12.070;2023-05-15T05:28:51;11.10;99.90
16966;DHT22;8599;47.852;12.070;2023-05-15T05:31:19;11.10;99.90
16966;DHT22;8599;47.852;12.070;2023-05-15T05:33:46;11.00;99.90
16966;DHT22;8599;47.852;12.070;2023-05-15T05:36:15;11.10;99.90
16966;DHT22;8599;47.852;12.070;2023-05-15T05:38:42;11.10;99.90
16966;DHT22;8599;47.852;12.070;2023-05-15T05:41:09;11.10;99.90
16966;DHT22;8599;47.852;12.070;2023-05-15T05:43:36;11.00;99.90
16966;DHT22;8599;47.852;12.070;2023-05-15T05:46:02;11.00;99.90
16966;DHT22;8599;47.852;12.070;2023-05-15T05:48:29;11.00;99.90
16966;DHT22;8599;47.852;12.070;2023-05-15T05:50:56;10.80;99.90
16966;DHT22;8599;47.852;12.070;2023-05-15T05:53:25;10.80;99.90
16966;DHT22;8599;47.852;12.070;2023-05-15T05:55:52;10.80;99.90
16966;DHT22;8599;47.852;12.070;2023-05-15T05:58:19;10.80;99.90
16966;DHT22;8599;47.852;12.070;2023-05-15T06:00:46;10.90;99.90
16966;DHT22;8599;47.852;12.070;2023-05-15T06:03:13;10.90;99.90
16966;DHT22;8599;47.852;12.070;2023-05-15T06:05:40;10.90;99.90
16966;DHT22;8599;47.852;12.070;2023-05-15T06:08:07;11.00;99.90
16966;DHT22;8599;47.852;12.070;2023-05-15T06:10:35;11.00;99.90
16966;DHT22;8599;47.852;12.070;2023-05-15T06:13:02;11.00;99.90
16966;DHT22;8599;47.852;12.070;2023-05-15T06:15:28;11.00;99.90
16966;DHT22;8599;47.852;12.070;2023-05-15T06:17:55;11.00;99.90
16966;DHT22;8599;47.852;12.070;2023-05-15T06:20:22;11.00;99.90
16966;DHT22;8599;47.852;12.070;2023-05-15T06:22:49;11.00;99.90
16966;DHT22;8599;47.852;12.070;2023-05-15T06:25:16;11.00;99.90
16966;DHT22;8599;47.852;12.070;2023-05-15T06:27:44;11.00;99.90
16966;DHT22;8599;47.852;12.070;2023-05-15T06:30:12;11.00;99.90
16966;DHT22;8599;47.852;12.070;2023-05-15T06:32:39;11.10;99.90
16966;DHT22;8599;47.852;12.070;2023-05-15T06:35:08;11.10;99.90
16966;DHT22;8599;47.852;12.070;2023-05-15T06:37:35;11.20;99.90
16966;DHT22;8599;47.852;12.070;2023-05-15T06:40:02;11.20;99.90
16966;DHT22;8599;47.852;12.070;2023-05-15T06:42:29;11.20;99.90
16966;DHT22;8599;47.852;12.070;2023-05-15T06:44:58;11.30;99.90
16966;DHT22;8599;47.852;12.070;2023-05-15T06:47:25;11.30;99.90
16966;DHT22;8599;47.852;12.070;2023-05-15T06:49:52;11.30;99.90
16966;DHT22;8599;47.852;12.070;2023-05-15T06:52:19;11.30;99.90
16966;DHT22;8599;47.852;12.070;2023-05-15T06:54:46;11.40;99.90
16966;DHT22;8599;47.852;12.070;2023-05-15T06:57:13;11.40;99.90
16966;DHT22;8599;47.852;12.070;2023-05-15T06:59:39;11.40;99.90
16966;DHT22;8599;47.852;12.070;2023-05-15T07:02:07;11.50;99.90
16966;DHT22;8599;47.852;12.070;2023-05-15T07:04:34;11.50;99.90
16966;DHT22;8599;47.852;12.070;2023-05-15T07:07:01;11.60;99.90
16966;DHT22;8599;47.852;12.070;2023-05-15T07:09:28;11.60;99.90
16966;DHT22;8599;47.852;12.070;2023-05-15T07:11:55;11.60;99.90
16966;DHT22;8599;47.852;12.070;2023-05-15T07:14:22;11.60;99.90
16966;DHT22;8599;47.852;12.070;2023-05-15T07:16:49;11.60;99.90
16966;DHT22;8599;47.852;12.070;2023-05-15T07:19:18;11.60;99.90
16966;DHT22;8599;47.852;12.070;2023-05-15T07:21:46;11.60;99.90
16966;DHT22;8599;47.852;12.070;2023-05-15T07:24:12;11.60;99.90
16966;DHT22;8599;47.852;12.070;2023-05-15T07:26:39;11.60;99.90
16966;DHT22;8599;47.852;12.070;2023-05-15T07:29:06;11.60;99.90
16966;DHT22;8599;47.852;12.070;2023-05-15T07:31:33;11.60;99.90
16966;DHT22;8599;47.852;12.070;2023-05-15T07:34:00;11.60;99.90
16966;DHT22;8599;47.852;12.070;2023-05-15T07:36:28;11.70;99.90
16966;DHT22;8599;47.852;12.070;2023-05-15T07:38:55;11.80;99.90
16966;DHT22;8599;47.852;12.070;2023-05-15T07:41:22;11.80;99.90
16966;DHT22;8599;47.852;12.070;2023-05-15T07:43:48;11.90;99.90
16966;DHT22;8599;47.852;12.070;2023-05-15T07:46:15;11.90;99.90
16966;DHT22;8599;47.852;12.070;2023-05-15T07:48:42;12.00;99.90
16966;DHT22;8599;47.852;12.070;2023-05-15T07:51:09;12.00;99.90
16966;DHT22;8599;47.852;12.070;2023-05-15T07:53:37;12.00;99.90
16966;DHT22;8599;47.852;12.070;2023-05-15T07:56:04;12.10;99.90
16966;DHT22;8599;47.852;12.070;2023-05-15T07:58:31;12.20;99.90
16966;DHT22;8599;47.852;12.070;2023-05-15T08:01:00;12.30;99.90
16966;DHT22;8599;47.852;12.070;2023-05-15T08:03:26;12.30;99.90
16966;DHT22;8599;47.852;12.070;2023-05-15T08:05:53;12.40;99.90
16966;DHT22;8599;47.852;12.070;2023-05-15T08:08:20;12.50;99.90
16966;DHT22;8599;47.852;12.070;2023-05-15T08:10:48;12.50;99.90
16966;DHT22;8599;47.852;12.070;2023-05-15T08:13:15;12.70;99.90
16966;DHT22;8599;47.852;12.070;2023-05-15T08:15:42;12.80;99.90
16966;DHT22;8599;47.852;12.070;2023-05-15T08:18:09;12.90;99.90
16966;DHT22;8599;47.852;12.070;2023-05-15T08:20:36;12.90;99.90
16966;DHT22;8599;47.852;12.070;2023-05-15T08:23:03;12.90;99.90
16966;DHT22;8599;47.852;12.070;2023-05-15T08:25:30;13.00;99.90
16966;DHT22;8599;47.852;12.070;2023-05-15T08:27:58;13.10;99.90
16966;DHT22;8599;47.852;12.070;2023-05-15T08:30:25;13.10;99.90
16966;DHT22;8599;47.852;12.070;2023-05-15T08:32:52;13.20;99.90
16966;DHT22;8599;47.852;12.070;2023-05-15T08:35:18;13.20;99.90
16966;DHT22;8599;47.852;12.070;2023-05-15T08:37:45;13.20;99.90
16966;DHT22;8599;47.852;12.070;2023-05-15T08:40:12;13.00;99.90
16966;DHT22;8599;47.852;12.070;2023-05-15T08:42:42;13.00;99.90
16966;DHT22;8599;47.852;12.070;2023-05-15T08:45:12;13.10;99.90
16966;DHT22;8599;47.852;12.070;2023-05-15T08:47:40;13.20;99.90
16966;DHT22;8599;47.852;12.070;2023-05-15T08:50:09;13.20;99.90
16966;DHT22;8599;47.852;12.070;2023-05-15T08:52:39;13.20;99.90
16966;DHT22;8599;47.852;12.070;2023-05-15T08:55:08;13.20;99.90
16966;DHT22;8599;47.852;12.070;2023-05-15T08:57:35;13.20;99.90
16966;DHT22;8599;47.852;12.070;2023-05-15T09:00:03;13.20;99.90
16966;DHT22;8599;47.852;12.070;2023-05-15T09:02:34;13.10;99.90
16966;DHT22;8599;47.852;12.070;2023-05-15T09:09:26;13.20;99.90
16966;DHT22;8599;47.852;12.070;2023-05-15T09:11:53;13.20;99.90
16966;DHT22;8599;47.852;12.070;2023-05-15T09:14:21;13.20;99.90
16966;DHT22;8599;47.852;12.070;2023-05-15T09:16:48;13.10;99.90
16966;DHT22;8599;47.852;12.070;2023-05-15T09:19:18;13.10;99.90
16966;DHT22;8599;47.852;12.070;2023-05-15T09:21:45;13.10;99.90
16966;DHT22;8599;47.852;12.070;2023-05-15T09:24:17;13.00;99.90
16966;DHT22;8599;47.852;12.070;2023-05-15T09:26:47;13.00;99.90
16966;DHT22;8599;47.852;12.070;2023-05-15T09:29:26;13.00;99.90
16966;DHT22;8599;47.852;12.070;2023-05-15T09:31:53;12.90;99.90
16966;DHT22;8599;47.852;12.070;2023-05-15T09:34:28;12.90;99.90
16966;DHT22;8599;47.852;12.070;2023-05-15T09:36:55;12.90;99.90
16966;DHT22;8599;47.852;12.070;2023-05-15T09:39:22;13.00;99.90
16966;DHT22;8599;47.852;12.070;2023-05-15T09:41:51;13.00;99.90
16966;DHT22;8599;47.852;12.070;2023-05-15T09:44:18;13.00;99.90
16966;DHT22;8599;47.852;12.070;2023-05-15T09:46:46;12.90;99.90
16966;DHT22;8599;47.852;12.070;2023-05-15T09:49:13;12.90;99.90
16966;DHT22;8599;47.852;12.070;2023-05-15T09:51:42;12.90;99.90
16966;DHT22;8599;47.852;12.070;2023-05-15T09:54:13;13.00;99.90
16966;DHT22;8599;47.852;12.070;2023-05-15T09:56:41;13.00;99.90
16966;DHT22;8599;47.852;12.070;2023-05-15T09:59:12;13.10;99.90
16966;DHT22;8599;47.852;12.070;2023-05-15T10:01:41;13.20;99.90
16966;DHT22;8599;47.852;12.070;2023-05-15T10:04:09;13.30;99.90
16966;DHT22;8599;47.852;12.070;2023-05-15T10:06:36;13.30;99.90
16966;DHT22;8599;47.852;12.070;2023-05-15T10:09:04;13.50;99.90
16966;DHT22;8599;47.852;12.070;2023-05-15T10:11:33;13.60;99.90
16966;DHT22;8599;47.852;12.070;2023-05-15T10:14:01;13.70;99.90
16966;DHT22;8599;47.852;12.070;2023-05-15T10:16:32;13.80;99.90
16966;DHT22;8599;47.852;12.070;2023-05-15T10:19:00;13.70;99.90
16966;DHT22;8599;47.852;12.070;2023-05-15T10:21:31;13.70;99.90
16966;DHT22;8599;47.852;12.070;2023-05-15T10:23:59;13.60;99.90
16966;DHT22;8599;47.852;12.070;2023-05-15T10:26:34;13.70;99.90
16966;DHT22;8599;47.852;12.070;2023-05-15T10:29:04;13.90;99.90
16966;DHT22;8599;47.852;12.070;2023-05-15T10:31:33;13.90;99.90
16966;DHT22;8599;47.852;12.070;2023-05-15T10:34:00;14.00;99.90
16966;DHT22;8599;47.852;12.070;2023-05-15T10:36:28;14.10;99.90
16966;DHT22;8599;47.852;12.070;2023-05-15T10:38:56;14.30;99.90
16966;DHT22;8599;47.852;12.070;2023-05-15T10:41:24;14.50;99.90
16966;DHT22;8599;47.852;12.070;2023-05-15T10:43:52;14.70;99.90
16966;DHT22;8599;47.852;12.070;2023-05-15T10:46:20;14.90;99.90
16966;DHT22;8599;47.852;12.070;2023-05-15T10:48:49;15.00;99.90
16966;DHT22;8599;47.852;12.070;2023-05-15T10:51:17;15.30;99.90
16966;DHT22;8599;47.852;12.070;2023-05-15T10:53:45;15.20;99.90
16966;DHT22;8599;47.852;12.070;2023-05-15T10:56:13;15.20;99.90
16966;DHT22;8599;47.852;12.070;2023-05-15T10:58:44;15.10;99.90
16966;DHT22;8599;47.852;12.070;2023-05-15T11:01:24;14.80;99.90
16966;DHT22;8599;47.852;12.070;2023-05-15T11:04:07;14.60;99.90
16966;DHT22;8599;47.852;12.070;2023-05-15T11:06:35;14.50;99.90
16966;DHT22;8599;47.852;12.070;2023-05-15T11:12:04;14.50;99.90
16966;DHT22;8599;47.852;12.070;2023-05-15T11:14:31;14.40;99.90
16966;DHT22;8599;47.852;12.070;2023-05-15T11:16:59;14.30;99.90
16966;DHT22;8599;47.852;12.070;2023-05-15T11:19:34;14.10;99.90
16966;DHT22;8599;47.852;12.070;2023-05-15T11:22:05;14.00;99.90
16966;DHT22;8599;47.852;12.070;2023-05-15T11:24:51;13.90;99.90
16966;DHT22;8599;47.852;12.070;2023-05-15T11:27:20;14.10;99.90
16966;DHT22;8599;47.852;12.070;2023-05-15T11:30:06;14.20;99.90
16966;DHT22;8599;47.852;12.070;2023-05-15T11:32:47;14.40;99.90
16966;DHT22;8599;47.852;12.070;2023-05-15T11:35:20;14.40;99.90
16966;DHT22;8599;47.852;12.070;2023-05-15T11:37:49;14.40;99.90
16966;DHT22;8599;47.852;12.070;2023-05-15T11:40:19;14.40;99.90
16966;DHT22;8599;47.852;12.070;2023-05-15T11:43:03;14.40;99.90
16966;DHT22;8599;47.852;12.070;2023-05-15T11:45:31;14.50;99.90
16966;DHT22;8599;47.852;12.070;2023-05-15T11:48:00;14.60;99.90
16966;DHT22;8599;47.852;12.070;2023-05-15T11:50:29;14.60;99.90
16966;DHT22;8599;47.852;12.070;2023-05-15T11:52:57;14.70;99.90
16966;DHT22;8599;47.852;12.070;2023-05-15T11:55:27;14.90;99.90
16966;DHT22;8599;47.852;12.070;2023-05-15T11:57:54;15.30;99.90
16966;DHT22;8599;47.852;12.070;2023-05-15T12:00:21;15.60;99.90
16966;DHT22;8599;47.852;12.070;2023-05-15T12:02:48;15.70;99.90
16966;DHT22;8599;47.852;12.070;2023-05-15T12:05:15;15.90;99.90
16966;DHT22;8599;47.852;12.070;2023-05-15T12:07:44;15.80;99.90
16966;DHT22;8599;47.852;12.070;2023-05-15T12:10:12;15.70;99.90
16966;DHT22;8599;47.852;12.070;2023-05-15T12:12:39;15.70;99.90
16966;DHT22;8599;47.852;12.070;2023-05-15T12:15:08;15.50;99.90
16966;DHT22;8599;47.852;12.070;2023-05-15T12:17:36;15.40;99.90
16966;DHT22;8599;47.852;12.070;2023-05-15T12:20:06;15.50;99.90
16966;DHT22;8599;47.852;12.070;2023-05-15T12:22:37;15.40;99.90
16966;DHT22;8599;47.852;12.070;2023-05-15T12:25:07;15.40;99.90
16966;DHT22;8599;47.852;12.070;2023-05-15T12:27:34;15.30;99.90
16966;DHT22;8599;47.852;12.070;2023-05-15T12:30:02;15.20;99.90
16966;DHT22;8599;47.852;12.070;2023-05-15T12:32:30;14.90;99.90
16966;DHT22;8599;47.852;12.070;2023-05-15T12:34:58;14.80;99.90
16966;DHT22;8599;47.852;12.070;2023-05-15T12:37:25;14.70;99.90
16966;DHT22;8599;47.852;12.070;2023-05-15T12:39:53;14.70;99.90
16966;DHT22;8599;47.852;12.070;2023-05-15T12:42:22;14.50;99.90
16966;DHT22;8599;47.852;12.070;2023-05-15T12:44:50;14.40;99.90
16966;DHT22;8599;47.852;12.070;2023-05-15T12:47:21;14.40;99.90
16966;DHT22;8599;47.852;12.070;2023-05-15T12:49:48;14.40;99.90
16966;DHT22;8599;47.852;12.070;2023-05-15T12:52:15;14.50;99.90
16966;DHT22;8599;47.852;12.070;2023-05-15T12:54:43;14.50;99.90
16966;DHT22;8599;47.852;12.070;2023-05-15T12:57:10;14.60;99.90
16966;DHT22;8599;47.852;12.070;2023-05-15T12:59:39;14.80;99.90
16966;DHT22;8599;47.852;12.070;2023-05-15T13:02:09;15.00;99.90
16966;DHT22;8599;47.852;12.070;2023-05-15T13:04:36;15.20;99.90
16966;DHT22;8599;47.852;12.070;2023-05-15T13:07:04;15.40;99.90
16966;DHT22;8599;47.852;12.070;2023-05-15T13:09:31;15.60;99.90
16966;DHT22;8599;47.852;12.070;2023-05-15T13:12:01;15.70;99.90
16966;DHT22;8599;47.852;12.070;2023-05-15T13:14:31;15.80;99.90
16966;DHT22;8599;47.852;12.070;2023-05-15T13:17:00;16.10;99.90
16966;DHT22;8599;47.852;12.070;2023-05-15T13:19:28;16.20;99.90
16966;DHT22;8599;47.852;12.070;2023-05-15T13:21:55;16.00;99.90
16966;DHT22;8599;47.852;12.070;2023-05-15T13:24:22;16.00;99.90
16966;DHT22;8599;47.852;12.070;2023-05-15T13:26:49;16.00;99.90
16966;DHT22;8599;47.852;12.070;2023-05-15T13:29:17;16.10;99.90
16966;DHT22;8599;47.852;12.070;2023-05-15T13:31:44;16.10;99.90
16966;DHT22;8599;47.852;12.070;2023-05-15T13:34:12;16.10;99.90
16966;DHT22;8599;47.852;12.070;2023-05-15T13:36:39;16.00;99.90
16966;DHT22;8599;47.852;12.070;2023-05-15T13:39:05;15.90;99.90
16966;DHT22;8599;47.852;12.070;2023-05-15T13:41:32;15.80;99.90
16966;DHT22;8599;47.852;12.070;2023-05-15T13:43:59;15.90;99.90
16966;DHT22;8599;47.852;12.070;2023-05-15T13:46:26;15.80;99.90
16966;DHT22;8599;47.852;12.070;2023-05-15T13:48:53;15.70;99.90
16966;DHT22;8599;47.852;12.070;2023-05-15T13:51:21;15.50;99.90
16966;DHT22;8599;47.852;12.070;2023-05-15T13:53:48;15.60;99.90
16966;DHT22;8599;47.852;12.070;2023-05-15T13:56:14;15.50;99.90
16966;DHT22;8599;47.852;12.070;2023-05-15T13:58:41;15.60;99.90
16966;DHT22;8599;47.852;12.070;2023-05-15T14:01:08;15.70;99.90
16966;DHT22;8599;47.852;12.070;2023-05-15T14:03:35;15.90;99.90
16966;DHT22;8599;47.852;12.070;2023-05-15T14:06:02;16.30;99.90
16966;DHT22;8599;47.852;12.070;2023-05-15T14:08:30;16.70;99.90
16966;DHT22;8599;47.852;12.070;2023-05-15T14:10:57;17.00;99.90
16966;DHT22;8599;47.852;12.070;2023-05-15T14:13:24;17.00;99.90
16966;DHT22;8599;47.852;12.070;2023-05-15T14:15:50;17.00;99.90
16966;DHT22;8599;47.852;12.070;2023-05-15T14:18:18;17.00;99.90
16966;DHT22;8599;47.852;12.070;2023-05-15T14:20:44;16.90;99.90
16966;DHT22;8599;47.852;12.070;2023-05-15T14:23:11;16.80;99.90
16966;DHT22;8599;47.852;12.070;2023-05-15T14:25:40;16.60;99.90
16966;DHT22;8599;47.852;12.070;2023-05-15T14:28:07;16.30;99.90
16966;DHT22;8599;47.852;12.070;2023-05-15T14:30:34;16.20;99.90
16966;DHT22;8599;47.852;12.070;2023-05-15T14:33:00;16.00;99.90
16966;DHT22;8599;47.852;12.070;2023-05-15T14:35:27;15.80;99.90
16966;DHT22;8599;47.852;12.070;2023-05-15T14:37:54;15.70;99.90
16966;DHT22;8599;47.852;12.070;2023-05-15T14:40:21;15.60;99.90
16966;DHT22;8599;47.852;12.070;2023-05-15T14:42:49;15.60;99.90
16966;DHT22;8599;47.852;12.070;2023-05-15T14:45:16;15.30;99.90
16966;DHT22;8599;47.852;12.070;2023-05-15T14:47:42;15.20;99.90
16966;DHT22;8599;47.852;12.070;2023-05-15T14:50:09;15.10;99.90
16966;DHT22;8599;47.852;12.070;2023-05-15T14:52:36;15.10;99.90
16966;DHT22;8599;47.852;12.070;2023-05-15T14:55:04;14.90;99.90
16966;DHT22;8599;47.852;12.070;2023-05-15T14:57:31;14.80;99.90
16966;DHT22;8599;47.852;12.070;2023-05-15T14:59:59;14.90;99.90
16966;DHT22;8599;47.852;12.070;2023-05-15T15:02:26;14.80;99.90
16966;DHT22;8599;47.852;12.070;2023-05-15T15:04:52;14.80;99.90
16966;DHT22;8599;47.852;12.070;2023-05-15T15:07:19;15.00;99.90
16966;DHT22;8599;47.852;12.070;2023-05-15T15:09:46;15.00;99.90
16966;DHT22;8599;47.852;12.070;2023-05-15T15:12:13;15.10;99.90
16966;DHT22;8599;47.852;12.070;2023-05-15T15:14:39;15.10;99.90
16966;DHT22;8599;47.852;12.070;2023-05-15T15:17:08;15.20;99.90
16966;DHT22;8599;47.852;12.070;2023-05-15T15:19:34;15.20;99.90
16966;DHT22;8599;47.852;12.070;2023-05-15T15:22:01;15.40;99.90
16966;DHT22;8599;47.852;12.070;2023-05-15T15:24:28;15.60;99.90
16966;DHT22;8599;47.852;12.070;2023-05-15T15:26:55;15.60;99.90
16966;DHT22;8599;47.852;12.070;2023-05-15T15:29:22;15.50;99.90
16966;DHT22;8599;47.852;12.070;2023-05-15T15:31:48;15.60;99.90
16966;DHT22;8599;47.852;12.070;2023-05-15T15:34:17;15.60;99.90
16966;DHT22;8599;47.852;12.070;2023-05-15T15:36:43;15.70;99.90
16966;DHT22;8599;47.852;12.070;2023-05-15T15:39:10;15.60;99.90
16966;DHT22;8599;47.852;12.070;2023-05-15T15:41:37;15.70;99.90
16966;DHT22;8599;47.852;12.070;2023-05-15T15:44:04;15.70;99.90
16966;DHT22;8599;47.852;12.070;2023-05-15T15:46:31;15.70;99.90